Time;durP1;ratioP1;P1;durP2;ratioP2;P2;SDS_P1;SDS_P2;PMS_P1;PMS_P2;Temp;Humidity;BMP_temperature;BMP_pressure;BME280_temperature;BME280_humidity;BME280_pressure;Samples;Min_cycle;Max_cycle;Signal;HPM_P1;HPM_P2
2023/03/19 00:02:14;;;;;;;18.08;12.52;;;10.10;99.90;;;;;;6250158;22;20022;-79
2023/03/19 00:04:40;;;;;;;17.48;12.05;;;10.10;99.90;;;;;;6277554;22;20022;-79
2023/03/19 00:07:05;;;;;;;17.23;11.75;;;10.00;99.90;;;;;;6250163;22;20090;-79
2023/03/19 00:09:31;;;;;;;17.95;10.73;;;10.10;99.90;;;;;;6250112;22;20102;-79
2023/03/19 00:11:57;;;;;;;18.08;11.07;;;10.10;99.90;;;;;;6250021;22;20018;-79
2023/03/19 00:14:23;;;;;;;16.50;10.70;;;10.10;99.90;;;;;;6249953;22;20015;-79
2023/03/19 00:16:48;;;;;;;14.20;10.63;;;10.00;99.90;;;;;;6250009;22;20020;-79
2023/03/19 00:19:14;;;;;;;16.17;10.38;;;10.00;99.90;;;;;;6276900;22;20137;-78
2023/03/19 00:21:40;;;;;;;15.60;10.20;;;10.10;99.90;;;;;;6249957;22;20019;-79
2023/03/19 00:24:06;;;;;;;16.00;9.82;;;10.10;99.90;;;;;;6249827;22;20067;-79
2023/03/19 00:26:33;;;;;;;15.30;10.20;;;10.00;99.90;;;;;;6249838;22;20053;-79
2023/03/19 00:29:00;;;;;;;18.95;10.18;;;10.00;99.90;;;;;;6249931;22;20015;-79
2023/03/19 00:31:27;;;;;;;15.90;10.18;;;10.00;99.90;;;;;;6249994;22;20008;-79
2023/03/19 00:33:53;;;;;;;15.73;10.23;;;10.00;99.90;;;;;;6249990;22;20011;-79
2023/03/19 00:36:19;;;;;;;16.08;10.50;;;10.00;99.90;;;;;;6277080;22;20024;-79
2023/03/19 00:38:46;;;;;;;14.05;10.80;;;10.00;99.90;;;;;;6249919;22;20366;-79
2023/03/19 00:41:12;;;;;;;15.65;10.05;;;10.10;99.90;;;;;;6249809;22;20011;-79
2023/03/19 00:43:40;;;;;;;21.85;11.63;;;10.10;99.90;;;;;;6276645;22;20397;-79
2023/03/19 00:46:08;;;;;;;15.20;10.52;;;10.00;99.90;;;;;;6276867;22;20404;-79
2023/03/19 00:48:34;;;;;;;14.93;10.45;;;10.00;99.90;;;;;;6277185;22;20027;-79
2023/03/19 00:51:08;;;;;;;14.27;10.75;;;10.00;99.90;;;;;;6279042;22;20008;-79
2023/03/19 00:53:41;;;;;;;17.40;11.15;;;10.10;99.90;;;;;;6279315;22;20016;-79
2023/03/19 00:56:07;;;;;;;;;;;10.10;99.90;;;;;;6279963;22;20007;-79
2023/03/19 00:58:33;;;;;;;18.02;11.52;;;10.10;99.90;;;;;;6251918;22;20411;-79
2023/03/19 01:00:59;;;;;;;18.40;11.50;;;10.10;99.90;;;;;;6252010;22;20051;-79
2023/03/19 01:03:25;;;;;;;18.98;12.10;;;10.10;99.90;;;;;;6251742;22;20333;-79
2023/03/19 01:05:51;;;;;;;17.98;11.98;;;10.00;99.90;;;;;;6251764;22;20327;-79
2023/03/19 01:08:18;;;;;;;17.00;11.65;;;10.10;99.90;;;;;;6251858;22;20161;-79
2023/03/19 01:10:44;;;;;;;21.48;12.68;;;10.10;99.90;;;;;;6251770;22;20015;-79
2023/03/19 01:13:10;;;;;;;17.85;12.13;;;10.10;99.90;;;;;;6251802;22;20027;-79
2023/03/19 01:15:38;;;;;;;19.00;12.60;;;10.10;99.90;;;;;;6279207;22;20022;-79
2023/03/19 01:18:04;;;;;;;18.73;11.93;;;10.00;99.90;;;;;;6251627;22;20012;-79
2023/03/19 01:20:30;;;;;;;18.77;12.70;;;10.10;99.90;;;;;;6279150;22;20039;-79
2023/03/19 01:22:55;;;;;;;18.63;12.00;;;10.00;99.90;;;;;;6278969;22;20016;-79
2023/03/19 01:25:21;;;;;;;19.70;11.55;;;10.00;99.90;;;;;;6251661;22;20072;-79
2023/03/19 01:27:47;;;;;;;17.85;11.55;;;10.00;99.90;;;;;;6278735;22;20026;-79
2023/03/19 01:30:13;;;;;;;16.20;11.50;;;10.00;99.90;;;;;;6279002;22;20019;-79
2023/03/19 01:32:39;;;;;;;18.60;12.07;;;9.90;99.90;;;;;;6251687;22;20373;-79
2023/03/19 01:35:05;;;;;;;21.02;13.48;;;9.90;99.90;;;;;;6278659;22;20024;-79
2023/03/19 01:37:31;;;;;;;23.25;12.93;;;10.00;99.90;;;;;;6251795;22;20043;-79
2023/03/19 01:39:57;;;;;;;18.00;12.15;;;9.90;99.90;;;;;;6251512;22;20020;-79
2023/03/19 01:42:23;;;;;;;16.70;11.10;;;9.90;99.90;;;;;;6278305;22;20076;-79
2023/03/19 01:44:49;;;;;;;19.40;10.98;;;10.00;99.90;;;;;;6278868;22;20018;-79
2023/03/19 01:47:18;;;;;;;17.75;11.60;;;9.90;99.90;;;;;;6278777;22;20331;-79
2023/03/19 01:49:51;;;;;;;16.67;11.25;;;9.90;99.90;;;;;;6251358;22;20343;-79
2023/03/19 01:52:17;;;;;;;15.63;10.90;;;9.90;99.90;;;;;;6278928;22;20024;-79
2023/03/19 01:54:44;;;;;;;16.52;11.07;;;10.00;99.90;;;;;;6278428;22;20025;-79
2023/03/19 01:57:12;;;;;;;15.45;10.73;;;9.90;99.90;;;;;;6278804;22;20086;-79
2023/03/19 02:00:01;;;;;;;16.25;11.20;;;9.90;99.90;;;;;;6251334;22;20019;-79
2023/03/19 02:02:33;;;;;;;16.92;11.00;;;10.00;99.90;;;;;;6250418;22;20016;-79
2023/03/19 02:05:11;;;;;;;16.02;10.23;;;10.00;99.90;;;;;;6251219;22;20027;-79
2023/03/19 02:07:39;;;;;;;14.98;10.10;;;10.00;99.90;;;;;;6278735;22;20012;-79
2023/03/19 02:10:10;;;;;;;17.98;10.77;;;10.00;99.90;;;;;;6251232;22;20024;-80
2023/03/19 02:12:37;;;;;;;17.15;11.13;;;9.90;99.90;;;;;;6251266;22;20016;-80
2023/03/19 02:15:03;;;;;;;19.25;11.70;;;9.90;99.90;;;;;;6251120;22;20020;-80
2023/03/19 02:17:31;;;;;;;17.30;11.00;;;9.90;99.90;;;;;;6251152;22;20038;-80
2023/03/19 02:20:05;;;;;;;17.40;10.95;;;9.90;99.90;;;;;;6278557;22;20012;-80
2023/03/19 02:22:31;;;;;;;15.60;10.00;;;9.90;99.90;;;;;;6251033;22;20042;-80
2023/03/19 02:25:10;;;;;;;19.17;10.93;;;9.90;99.90;;;;;;6278514;22;20072;-80
2023/03/19 02:27:35;;;;;;;19.45;11.85;;;9.90;99.90;;;;;;6278527;22;20008;-80
2023/03/19 02:30:26;;;;;;;16.20;10.95;;;9.90;99.90;;;;;;6278511;22;20455;-80
2023/03/19 02:32:52;;;;;;;18.02;11.23;;;9.90;99.90;;;;;;6278842;22;20421;-80
2023/03/19 02:35:17;;;;;;;18.73;11.43;;;9.90;99.90;;;;;;6250942;22;20093;-80
2023/03/19 02:37:43;;;;;;;18.55;11.50;;;9.90;99.90;;;;;;6250909;22;20398;-80
2023/03/19 02:40:28;;;;;;;17.65;11.18;;;9.90;99.90;;;;;;6278311;22;20058;-80
2023/03/19 02:42:53;;;;;;;16.80;11.02;;;9.80;99.90;;;;;;6250614;22;20065;-79
2023/03/19 02:45:22;;;;;;;16.92;9.82;;;9.80;99.90;;;;;;6250819;22;20027;-79
2023/03/19 02:47:48;;;;;;;15.45;10.43;;;9.80;99.90;;;;;;6250617;22;20030;-79
2023/03/19 02:50:13;;;;;;;18.92;11.00;;;9.70;99.90;;;;;;6250903;22;20316;-80
2023/03/19 02:52:39;;;;;;;16.92;10.27;;;9.70;99.90;;;;;;6250871;22;20335;-79
2023/03/19 02:55:06;;;;;;;17.10;10.40;;;9.80;99.90;;;;;;6278225;22;20015;-80
2023/03/19 02:57:34;;;;;;;17.45;10.32;;;9.80;99.90;;;;;;6250658;22;20019;-80
2023/03/19 03:00:00;;;;;;;18.33;10.85;;;9.80;99.90;;;;;;6250743;22;20011;-80
2023/03/19 03:02:26;;;;;;;20.67;11.07;;;9.70;99.90;;;;;;6250634;22;20023;-80
2023/03/19 03:04:51;;;;;;;19.55;10.73;;;9.80;99.90;;;;;;6250512;22;20016;-80
2023/03/19 03:07:17;;;;;;;19.90;10.38;;;9.70;99.90;;;;;;6277715;22;20015;-80
2023/03/19 03:09:43;;;;;;;18.90;10.18;;;9.80;99.90;;;;;;6277705;22;20023;-80
2023/03/19 03:12:08;;;;;;;20.10;10.68;;;9.80;99.90;;;;;;6250357;22;20444;-80
2023/03/19 03:14:34;;;;;;;19.55;10.82;;;9.70;99.90;;;;;;6277812;22;20015;-80
2023/03/19 03:17:00;;;;;;;17.95;10.38;;;9.80;99.90;;;;;;6250669;22;20384;-80
2023/03/19 03:19:26;;;;;;;20.23;11.38;;;9.80;99.90;;;;;;6277967;22;20061;-80
2023/03/19 03:21:52;;;;;;;18.80;10.77;;;9.70;99.90;;;;;;6277994;22;20016;-80
2023/03/19 03:24:18;;;;;;;17.55;10.07;;;9.90;99.90;;;;;;6250459;22;20027;-80
2023/03/19 03:26:43;;;;;;;20.20;10.65;;;9.80;99.90;;;;;;6250375;22;20023;-81
2023/03/19 03:29:09;;;;;;;20.75;10.23;;;9.80;99.90;;;;;;6250535;22;20019;-81
2023/03/19 03:31:36;;;;;;;20.52;10.68;;;9.80;99.90;;;;;;6250311;22;20489;-80
2023/03/19 03:34:02;;;;;;;22.38;12.02;;;9.80;99.90;;;;;;6250404;22;20030;-80
2023/03/19 03:36:28;;;;;;;22.58;12.38;;;9.80;99.90;;;;;;6250434;22;20011;-81
2023/03/19 03:38:53;;;;;;;23.20;11.63;;;9.80;99.90;;;;;;6277600;22;20016;-80
2023/03/19 03:41:19;;;;;;;25.02;13.75;;;9.80;99.90;;;;;;6277226;22;20435;-81
2023/03/19 03:43:47;;;;;;;29.73;14.45;;;9.80;99.90;;;;;;6250266;22;20098;-80
2023/03/19 03:46:13;;;;;;;28.75;15.52;;;9.90;99.90;;;;;;6250442;22;20069;-80
2023/03/19 03:48:39;;;;;;;30.55;14.90;;;9.90;99.90;;;;;;6277354;22;20020;-82
2023/03/19 03:51:04;;;;;;;30.80;15.95;;;9.80;99.90;;;;;;6250331;22;20095;-81
2023/03/19 03:53:30;;;;;;;28.40;15.02;;;9.90;99.90;;;;;;6250317;22;20093;-81
2023/03/19 03:55:56;;;;;;;30.20;15.60;;;9.90;99.90;;;;;;6277690;22;20327;-81
2023/03/19 03:58:22;;;;;;;34.55;15.70;;;9.80;99.90;;;;;;6250209;22;20016;-81
2023/03/19 04:00:49;;;;;;;32.53;16.23;;;9.90;99.90;;;;;;6277636;22;20018;-81
2023/03/19 04:03:18;;;;;;;27.23;14.63;;;9.90;99.90;;;;;;6249975;22;20328;-81
2023/03/19 04:05:44;;;;;;;28.38;14.73;;;9.80;99.90;;;;;;6250149;22;20011;-81
2023/03/19 04:08:10;;;;;;;32.83;16.98;;;9.80;99.90;;;;;;6277524;22;20015;-81
2023/03/19 04:10:41;;;;;;;30.98;16.35;;;9.90;99.90;;;;;;6277397;22;20007;-81
2023/03/19 04:13:07;;;;;;;30.00;15.80;;;9.80;99.90;;;;;;6250037;22;20079;-81
2023/03/19 04:15:33;;;;;;;28.60;14.52;;;9.90;99.90;;;;;;6277465;22;20047;-81
2023/03/19 04:17:59;;;;;;;32.05;14.88;;;9.90;99.90;;;;;;6277415;22;20069;-80
2023/03/19 04:20:25;;;;;;;29.70;14.82;;;9.90;99.90;;;;;;6250006;22;20007;-81
2023/03/19 04:22:50;;;;;;;27.02;13.85;;;9.80;99.90;;;;;;6277302;22;20046;-80
2023/03/19 04:25:17;;;;;;;24.48;14.00;;;9.80;99.90;;;;;;6276681;22;20081;-80
2023/03/19 04:27:43;;;;;;;27.92;13.32;;;9.70;99.90;;;;;;6249452;22;20114;-80
2023/03/19 04:30:10;;;;;;;27.25;13.30;;;9.80;99.90;;;;;;6277359;22;20020;-80
2023/03/19 04:32:36;;;;;;;23.58;13.82;;;9.80;99.90;;;;;;6277334;22;20086;-80
2023/03/19 04:35:02;;;;;;;23.95;12.07;;;9.70;99.90;;;;;;6276800;22;20011;-80
2023/03/19 04:37:30;;;;;;;22.45;12.50;;;9.70;99.90;;;;;;6277300;22;20026;-80
2023/03/19 04:39:56;;;;;;;22.58;12.30;;;9.70;99.90;;;;;;6249946;22;20011;-80
2023/03/19 04:42:22;;;;;;;20.75;11.82;;;9.60;99.90;;;;;;6249578;22;20030;-80
2023/03/19 04:44:48;;;;;;;19.83;11.55;;;9.60;99.90;;;;;;6249774;22;20011;-80
2023/03/19 04:47:14;;;;;;;19.10;11.10;;;9.60;99.90;;;;;;6249895;22;20015;-80
2023/03/19 04:49:40;;;;;;;21.85;11.70;;;9.40;99.90;;;;;;6277263;22;20015;-80
2023/03/19 04:52:06;;;;;;;24.75;12.18;;;9.40;99.90;;;;;;6249949;22;20061;-80
2023/03/19 04:54:32;;;;;;;22.83;11.82;;;9.40;99.90;;;;;;6277058;22;20020;-80
2023/03/19 04:56:58;;;;;;;24.50;12.32;;;9.30;99.90;;;;;;6276845;22;20475;-80
2023/03/19 04:59:24;;;;;;;19.60;11.23;;;9.40;99.90;;;;;;6277206;22;20012;-80
2023/03/19 05:01:52;;;;;;;19.60;11.18;;;9.40;99.90;;;;;;6276835;22;20146;-80
2023/03/19 05:04:18;;;;;;;20.58;10.52;;;9.30;99.90;;;;;;6277059;22;20042;-80
2023/03/19 05:06:44;;;;;;;20.85;10.55;;;9.20;99.90;;;;;;6277404;22;20431;-80
2023/03/19 05:09:09;;;;;;;19.25;11.02;;;9.30;99.90;;;;;;6249781;22;20015;-80
2023/03/19 05:11:35;;;;;;;18.77;10.45;;;9.20;99.90;;;;;;6249726;22;20016;-80
2023/03/19 05:14:01;;;;;;;16.70;10.30;;;9.20;99.90;;;;;;6276738;22;20090;-80
2023/03/19 05:16:26;;;;;;;17.05;9.20;;;9.20;99.90;;;;;;6249638;22;20015;-80
2023/03/19 05:18:52;;;;;;;15.98;10.35;;;9.00;99.90;;;;;;6249565;22;20393;-80
2023/03/19 05:21:18;;;;;;;16.75;9.27;;;9.10;99.90;;;;;;6249660;22;20018;-80
2023/03/19 05:23:44;;;;;;;17.45;10.40;;;9.00;99.90;;;;;;6249635;22;20348;-80
2023/03/19 05:26:10;;;;;;;15.55;10.05;;;9.00;99.90;;;;;;6277027;22;20362;-80
2023/03/19 05:28:36;;;;;;;18.80;9.95;;;8.90;99.90;;;;;;6249732;22;20458;-80
2023/03/19 05:31:03;;;;;;;16.30;9.75;;;9.00;99.90;;;;;;6277093;22;20083;-80
2023/03/19 05:33:29;;;;;;;16.60;9.82;;;8.90;99.90;;;;;;6249449;22;20084;-80
2023/03/19 05:35:55;;;;;;;17.77;10.00;;;8.90;99.90;;;;;;6250330;22;20494;-80
2023/03/19 05:38:21;;;;;;;15.70;10.43;;;8.80;99.90;;;;;;6278316;22;20015;-80
2023/03/19 05:40:46;;;;;;;17.98;10.70;;;8.80;99.90;;;;;;6277740;22;20020;-80
2023/03/19 05:43:12;;;;;;;17.48;10.32;;;8.80;99.90;;;;;;6278056;22;20018;-80
2023/03/19 05:45:38;;;;;;;17.45;9.98;;;8.80;99.90;;;;;;6278786;22;20020;-80
2023/03/19 05:48:04;;;;;;;17.52;10.75;;;8.70;99.90;;;;;;6251285;22;20058;-80
2023/03/19 05:50:31;;;;;;;21.05;10.85;;;8.70;99.90;;;;;;6251327;22;20023;-80
2023/03/19 05:52:57;;;;;;;18.80;11.68;;;8.70;99.90;;;;;;6278320;22;20388;-80
2023/03/19 05:55:23;;;;;;;23.40;12.55;;;8.70;99.90;;;;;;6251263;22;20145;-80
2023/03/19 05:57:49;;;;;;;22.70;11.98;;;8.70;99.90;;;;;;6278392;22;20020;-80
2023/03/19 06:00:16;;;;;;;23.67;12.85;;;8.70;99.90;;;;;;6278494;22;20019;-80
2023/03/19 06:02:42;;;;;;;25.65;13.40;;;8.70;99.90;;;;;;6278628;22;20012;-80
2023/03/19 06:05:08;;;;;;;26.08;13.40;;;8.70;99.90;;;;;;6251200;22;20390;-80
2023/03/19 06:07:35;;;;;;;24.58;12.70;;;8.60;99.90;;;;;;6251116;22;20056;-80
2023/03/19 06:10:00;;;;;;;25.35;13.10;;;8.70;99.90;;;;;;6278558;22;20023;-80
2023/03/19 06:12:26;;;;;;;24.90;13.30;;;8.70;99.90;;;;;;6251126;22;20020;-80
2023/03/19 06:14:52;;;;;;;24.83;13.25;;;8.60;99.90;;;;;;6251092;22;20089;-80
2023/03/19 06:17:18;;;;;;;23.90;13.60;;;8.60;99.90;;;;;;6278507;22;20015;-80
2023/03/19 06:19:43;;;;;;;21.83;13.27;;;8.70;99.90;;;;;;6278074;22;20027;-80
2023/03/19 06:22:09;;;;;;;28.65;14.75;;;8.70;99.90;;;;;;6278435;22;20027;-80
2023/03/19 06:24:35;;;;;;;29.63;13.82;;;8.80;99.90;;;;;;6278068;22;20023;-80
2023/03/19 06:27:01;;;;;;;27.85;14.45;;;8.80;99.90;;;;;;6250989;22;20093;-80
2023/03/19 06:29:27;;;;;;;30.38;15.52;;;8.80;99.90;;;;;;6278036;22;20023;-80
2023/03/19 06:31:52;;;;;;;31.38;15.00;;;8.80;99.90;;;;;;6250937;22;20027;-80
2023/03/19 06:34:18;;;;;;;33.63;15.85;;;8.90;99.90;;;;;;6277954;22;20019;-80
2023/03/19 06:36:44;;;;;;;33.88;17.55;;;9.00;99.90;;;;;;6250816;22;20019;-80
2023/03/19 06:39:10;;;;;;;35.70;17.90;;;8.90;99.90;;;;;;6251023;22;20337;-80
2023/03/19 06:41:37;;;;;;;35.85;17.13;;;9.00;99.90;;;;;;6277982;22;20109;-81
2023/03/19 06:44:03;;;;;;;38.33;17.35;;;9.00;99.90;;;;;;6278287;22;20024;-80
2023/03/19 06:46:29;;;;;;;37.67;19.10;;;9.10;99.90;;;;;;6277791;22;20339;-80
2023/03/19 06:48:55;;;;;;;39.58;18.27;;;9.20;99.90;;;;;;6277679;22;20020;-81
2023/03/19 06:51:20;;;;;;;37.38;17.60;;;9.20;99.90;;;;;;6250788;22;20054;-80
2023/03/19 06:53:46;;;;;;;41.20;18.10;;;9.30;99.90;;;;;;6250819;22;20054;-80
2023/03/19 06:56:12;;;;;;;38.08;18.90;;;9.30;99.90;;;;;;6278267;22;20050;-80
2023/03/19 06:58:37;;;;;;;38.17;18.45;;;9.30;99.90;;;;;;6278114;22;20015;-80
2023/03/19 07:01:03;;;;;;;39.67;19.42;;;9.40;99.90;;;;;;6250527;22;20393;-80
2023/03/19 07:03:30;;;;;;;39.33;18.27;;;9.30;99.90;;;;;;6250484;22;20020;-80
2023/03/19 07:05:55;;;;;;;45.92;19.55;;;9.30;99.90;;;;;;6250514;22;20012;-81
2023/03/19 07:08:21;;;;;;;47.53;20.40;;;9.30;99.90;;;;;;6250445;22;20070;-81
2023/03/19 07:10:47;;;;;;;47.88;20.80;;;9.40;99.90;;;;;;6250609;22;20018;-80
2023/03/19 07:13:12;;;;;;;48.50;21.70;;;9.50;99.90;;;;;;6250342;22;20022;-80
2023/03/19 07:15:39;;;;;;;45.53;19.85;;;9.50;99.90;;;;;;6250542;22;20020;-81
2023/03/19 07:18:05;;;;;;;55.22;23.52;;;9.50;99.90;;;;;;6250487;22;20066;-80
2023/03/19 07:20:31;;;;;;;53.20;22.35;;;9.50;99.90;;;;;;6250421;22;20024;-81
2023/03/19 07:22:56;;;;;;;54.10;22.98;;;9.60;99.90;;;;;;6250343;22;20030;-80
2023/03/19 07:25:22;;;;;;;54.20;23.48;;;9.70;99.90;;;;;;6250385;22;20058;-81
2023/03/19 07:27:48;;;;;;;51.38;23.20;;;9.80;99.90;;;;;;6250480;22;20024;-81
2023/03/19 07:30:15;;;;;;;47.13;21.65;;;9.80;99.90;;;;;;6250304;22;20035;-81
2023/03/19 07:32:41;;;;;;;52.47;22.85;;;9.90;99.90;;;;;;6250387;22;20375;-79
2023/03/19 07:35:08;;;;;;;53.80;23.00;;;10.00;99.90;;;;;;6277634;22;20027;-79
2023/03/19 07:37:34;;;;;;;50.30;22.38;;;10.10;99.90;;;;;;6277395;22;20023;-79
2023/03/19 07:40:00;;;;;;;57.15;25.17;;;10.20;99.90;;;;;;6250209;22;20347;-79
2023/03/19 07:42:26;;;;;;;56.75;23.88;;;10.10;99.90;;;;;;6276906;22;20057;-80
2023/03/19 07:44:52;;;;;;;58.25;26.25;;;10.20;99.90;;;;;;6277310;22;20458;-80
2023/03/19 07:47:18;;;;;;;61.83;27.85;;;10.20;99.90;;;;;;6250182;22;20065;-80
2023/03/19 07:49:43;;;;;;;61.88;24.80;;;10.30;99.90;;;;;;6250189;22;20157;-83
2023/03/19 07:52:09;;;;;;;61.17;24.80;;;10.20;99.90;;;;;;6277571;22;20019;-80
2023/03/19 07:54:35;;;;;;;61.75;24.90;;;10.30;99.90;;;;;;6277433;22;20093;-80
2023/03/19 07:57:01;;;;;;;56.63;24.73;;;10.20;99.90;;;;;;6277450;22;20016;-80
2023/03/19 07:59:26;;;;;;;62.28;26.50;;;10.20;99.90;;;;;;6248864;22;20012;-80
2023/03/19 08:01:52;;;;;;;60.55;25.23;;;10.20;99.90;;;;;;6249912;22;20080;-80
2023/03/19 08:04:18;;;;;;;61.22;24.00;;;10.20;99.90;;;;;;6276666;22;20347;-80
2023/03/19 08:06:43;;;;;;;60.47;25.33;;;10.30;99.90;;;;;;6249723;22;20019;-80
2023/03/19 08:09:09;;;;;;;62.50;25.75;;;10.30;99.90;;;;;;6249655;22;20016;-80
2023/03/19 08:11:35;;;;;;;64.63;26.83;;;10.20;99.90;;;;;;6277253;22;20043;-80
2023/03/19 08:14:01;;;;;;;66.68;26.30;;;10.20;99.90;;;;;;6276606;22;20041;-80
2023/03/19 08:16:27;;;;;;;68.55;28.50;;;10.10;99.90;;;;;;6249828;22;20015;-81
2023/03/19 08:18:53;;;;;;;75.05;29.83;;;10.10;99.90;;;;;;6249691;22;20016;-81
2023/03/19 08:21:18;;;;;;;69.07;30.35;;;10.10;99.90;;;;;;6277011;22;20012;-80
2023/03/19 08:23:44;;;;;;;68.90;29.25;;;10.20;99.90;;;;;;6277049;22;20450;-80
2023/03/19 08:26:10;;;;;;;73.53;29.45;;;10.20;99.90;;;;;;6277043;22;20327;-80
2023/03/19 08:28:36;;;;;;;69.50;28.05;;;10.10;99.90;;;;;;6277041;22;20157;-82
2023/03/19 08:31:08;;;;;;;70.07;30.23;;;10.20;99.90;;;;;;6276425;22;20023;-83
2023/03/19 08:33:33;;;;;;;69.43;31.15;;;10.10;99.90;;;;;;6277014;22;20050;-81
2023/03/19 08:36:10;;;;;;;69.50;30.02;;;10.20;99.90;;;;;;6249534;22;20019;-81
2023/03/19 08:38:37;;;;;;;62.67;27.48;;;10.20;99.90;;;;;;6249696;22;20015;-84
2023/03/19 08:41:04;;;;;;;62.97;27.33;;;10.20;99.90;;;;;;6249687;22;20023;-85
2023/03/19 08:43:35;;;;;;;70.00;29.33;;;10.20;99.90;;;;;;6276572;22;20016;-84
2023/03/19 08:46:02;;;;;;;72.70;30.08;;;10.10;99.90;;;;;;6249507;22;20050;-83
2023/03/19 08:48:28;;;;;;;71.50;30.88;;;10.10;99.90;;;;;;6249541;22;20019;-82
2023/03/19 08:51:01;;;;;;;72.55;30.40;;;10.00;99.90;;;;;;6249427;22;20517;-82
2023/03/19 08:53:27;;;;;;;70.60;29.52;;;9.90;99.90;;;;;;6249533;22;20058;-83
2023/03/19 08:55:55;;;;;;;78.07;31.52;;;9.90;99.90;;;;;;6276887;22;20018;-83
2023/03/19 08:58:21;;;;;;;73.65;31.23;;;9.90;99.90;;;;;;6249394;22;20022;-83
2023/03/19 09:00:48;;;;;;;65.18;28.85;;;9.90;99.90;;;;;;6276789;22;20094;-82
2023/03/19 09:03:14;;;;;;;66.63;27.67;;;9.90;99.90;;;;;;6276687;22;20027;-85
2023/03/19 09:05:40;;;;;;;68.78;28.88;;;9.80;99.90;;;;;;6276866;22;20057;-84
2023/03/19 09:08:06;;;;;;;58.00;25.10;;;9.90;99.90;;;;;;6249474;22;20505;-82
2023/03/19 09:10:32;;;;;;;70.35;27.20;;;9.80;99.90;;;;;;6249930;22;20073;-83
2023/03/19 09:12:57;;;;;;;64.13;27.27;;;9.80;99.90;;;;;;6251370;22;20098;-82
2023/03/19 09:15:23;;;;;;;66.88;29.65;;;9.80;99.90;;;;;;6278330;22;20016;-85
2023/03/19 09:17:49;;;;;;;78.35;29.10;;;9.90;99.90;;;;;;6251488;22;20049;-85
2023/03/19 09:20:15;;;;;;;68.78;28.67;;;9.90;99.90;;;;;;6251465;22;20043;-83
2023/03/19 09:22:41;;;;;;;74.45;29.45;;;10.00;99.90;;;;;;6278707;22;20011;-84
2023/03/19 09:25:07;;;;;;;63.10;25.20;;;10.00;99.90;;;;;;6278495;22;20026;-84
2023/03/19 09:27:33;;;;;;;65.20;25.98;;;10.00;99.90;;;;;;6251219;22;20020;-84
2023/03/19 09:29:58;;;;;;;64.05;25.98;;;10.10;99.90;;;;;;6251082;22;20058;-85
2023/03/19 09:32:24;;;;;;;66.13;27.30;;;10.20;99.90;;;;;;6251325;22;20024;-85
2023/03/19 09:34:50;;;;;;;67.97;25.30;;;10.20;99.90;;;;;;6251225;22;20026;-84
2023/03/19 09:37:16;;;;;;;56.95;24.50;;;10.20;99.90;;;;;;6251235;22;20012;-84
2023/03/19 09:39:42;;;;;;;53.85;21.35;;;10.20;99.90;;;;;;6251622;22;20098;-83
2023/03/19 09:43:01;;;;;;;61.47;24.25;;;10.20;99.90;;;;;;6278149;22;20174;-83
2023/03/19 09:45:28;;;;;;;61.30;21.75;;;10.20;99.90;;;;;;6154944;23;20096;-83
2023/03/19 09:48:03;;;;;;;55.85;21.95;;;10.20;99.90;;;;;;6242521;22;20019;-83
2023/03/19 09:50:33;;;;;;;57.00;22.85;;;10.20;99.90;;;;;;6251098;22;20020;-82
2023/03/19 09:53:13;;;;;;;53.95;21.77;;;10.00;99.90;;;;;;6251052;22;20020;-82
2023/03/19 09:55:43;;;;;;;52.90;20.55;;;10.00;99.90;;;;;;6251121;22;20478;-82
2023/03/19 09:58:26;;;;;;;62.22;23.13;;;9.80;99.90;;;;;;6278442;22;20023;-82
2023/03/19 10:00:54;;;;;;;68.75;25.98;;;9.80;99.90;;;;;;6251083;22;20022;-80
2023/03/19 10:03:22;;;;;;;65.35;25.38;;;9.90;99.90;;;;;;6250780;22;20069;-80
2023/03/19 10:06:08;;;;;;;53.63;19.73;;;9.80;99.90;;;;;;6278423;22;20030;-81
2023/03/19 10:09:00;;;;;;;49.83;18.98;;;9.80;99.90;;;;;;6251025;22;20039;-79
2023/03/19 10:11:36;;;;;;;41.50;17.17;;;9.70;99.90;;;;;;6250873;22;20016;-80
2023/03/19 10:14:40;;;;;;;35.20;14.60;;;9.70;99.90;;;;;;6250814;22;20023;-79
2023/03/19 10:17:13;;;;;;;34.83;13.05;;;9.60;99.90;;;;;;6250896;22;20074;-80
2023/03/19 10:19:45;;;;;;;;;;;9.70;99.90;;;;;;6278824;22;20012;-82
2023/03/19 10:22:26;;;;;;;34.95;12.32;;;9.70;99.90;;;;;;6277451;22;19919;-81
2023/03/19 10:24:53;;;;;;;36.20;13.05;;;9.60;99.90;;;;;;6251167;22;20012;-81
2023/03/19 10:27:22;;;;;;;35.70;14.05;;;9.70;99.90;;;;;;6250837;22;20022;-82
2023/03/19 10:29:48;;;;;;;35.95;14.32;;;9.80;99.90;;;;;;6250780;22;20016;-81
2023/03/19 10:32:45;;;;;;;42.78;15.68;;;9.80;99.90;;;;;;6250740;22;20016;-81
2023/03/19 10:35:18;;;;;;;41.67;15.13;;;9.80;99.90;;;;;;6250577;22;20470;-82
2023/03/19 10:37:44;;;;;;;36.22;14.38;;;9.60;99.90;;;;;;6250597;22;20023;-82
2023/03/19 10:40:20;;;;;;;37.38;14.88;;;9.60;99.90;;;;;;6250496;22;20018;-82
2023/03/19 10:43:15;;;;;;;37.05;13.20;;;9.60;99.90;;;;;;6277003;22;20397;-82
2023/03/19 10:45:42;;;;;;;39.72;13.77;;;9.50;99.90;;;;;;6250677;22;20046;-82
2023/03/19 10:48:14;;;;;;;38.35;13.57;;;9.60;99.90;;;;;;6250564;22;20091;-82
2023/03/19 10:51:04;;;;;;;37.13;14.77;;;9.60;99.90;;;;;;6250427;22;20081;-81
2023/03/19 10:53:38;;;;;;;45.83;14.43;;;9.70;99.90;;;;;;6278031;22;20061;-79
2023/03/19 10:56:21;;;;;;;40.05;14.65;;;9.70;99.90;;;;;;6277914;22;20065;-80
2023/03/19 10:59:04;;;;;;;43.92;15.60;;;9.80;99.90;;;;;;6250616;22;20035;-87
2023/03/19 11:01:34;;;;;;;36.75;14.18;;;9.70;99.90;;;;;;6250391;22;20016;-82
2023/03/19 11:04:10;;;;;;;33.40;13.27;;;9.80;99.90;;;;;;6277656;22;20020;-82
2023/03/19 11:06:37;;;;;;;31.52;13.07;;;9.70;99.90;;;;;;6250412;22;20024;-83
2023/03/19 11:09:09;;;;;;;32.10;14.32;;;9.80;99.90;;;;;;6250332;22;20088;-81
2023/03/19 11:11:47;;;;;;;41.70;15.13;;;9.90;99.90;;;;;;6250517;22;20019;-82
2023/03/19 11:14:17;;;;;;;34.20;13.82;;;9.90;99.90;;;;;;6250129;22;20447;-82
2023/03/19 11:16:56;;;;;;;30.08;12.95;;;10.00;99.90;;;;;;6250309;22;20371;-82
2023/03/19 11:19:28;;;;;;;35.53;14.73;;;10.00;99.90;;;;;;6250030;22;20435;-84
2023/03/19 11:22:22;;;;;;;34.87;13.97;;;9.90;99.90;;;;;;6277369;22;20378;-86
2023/03/19 11:24:51;;;;;;;45.70;16.40;;;9.90;99.90;;;;;;6245900;22;20015;-85
2023/03/19 11:27:17;;;;;;;47.17;16.52;;;10.00;99.90;;;;;;6277348;22;20016;-85
2023/03/19 11:29:43;;;;;;;45.13;17.63;;;10.00;99.90;;;;;;6250309;22;20065;-84
2023/03/19 11:32:16;;;;;;;53.78;20.73;;;10.00;99.90;;;;;;6250127;22;20020;-82
2023/03/19 11:34:49;;;;;;;44.80;18.52;;;10.00;99.90;;;;;;6249869;22;20099;-82
2023/03/19 11:37:32;;;;;;;42.83;18.00;;;10.00;99.90;;;;;;6277703;22;20145;-82
2023/03/19 11:40:00;;;;;;;45.17;19.92;;;10.10;99.90;;;;;;6277595;22;20058;-82
2023/03/19 11:42:52;;;;;;;54.13;20.73;;;10.10;99.90;;;;;;6249671;22;20021;-84
2023/03/19 11:45:40;;;;;;;46.25;18.73;;;10.00;99.90;;;;;;6277448;22;20024;-84
2023/03/19 11:48:34;;;;;;;44.80;18.77;;;10.00;99.90;;;;;;6277080;22;20382;-83
2023/03/19 11:51:09;;;;;;;46.10;19.58;;;10.00;99.90;;;;;;6277347;22;20015;-83
2023/03/19 11:53:50;;;;;;;52.80;20.73;;;10.00;99.90;;;;;;6249986;22;20020;-80
2023/03/19 11:56:51;;;;;;;51.28;21.08;;;10.00;99.90;;;;;;6249878;22;20047;-80
2023/03/19 11:59:25;;;;;;;45.25;19.77;;;9.90;99.90;;;;;;6188562;22;20051;-80
2023/03/19 12:02:02;;;;;;;46.60;19.30;;;10.00;99.90;;;;;;6249770;22;20095;-84
2023/03/19 12:04:46;;;;;;;48.15;19.90;;;10.10;99.90;;;;;;6276774;22;20336;-83
2023/03/19 12:07:43;;;;;;;53.75;19.58;;;10.10;99.90;;;;;;6249853;22;20050;-79
2023/03/19 12:10:24;;;;;;;49.15;19.50;;;10.10;99.90;;;;;;6224137;22;20016;-86
2023/03/19 12:13:35;;;;;;;40.53;18.75;;;10.20;99.90;;;;;;6249627;22;20022;-86
2023/03/19 12:16:16;;;;;;;44.25;19.65;;;10.20;99.90;;;;;;6219672;22;20390;-83
2023/03/19 12:18:51;;;;;;;42.90;19.15;;;10.20;99.90;;;;;;6277155;22;20015;-83
2023/03/19 12:21:26;;;;;;;44.53;18.45;;;10.20;99.90;;;;;;6249707;22;20030;-82
2023/03/19 12:24:03;;;;;;;41.10;18.63;;;10.20;99.90;;;;;;6249497;22;20016;-84
2023/03/19 12:26:51;;;;;;;42.50;18.67;;;10.30;99.90;;;;;;6276685;22;20031;-83
2023/03/19 12:29:36;;;;;;;42.15;19.33;;;10.30;99.90;;;;;;6249650;22;20026;-83
2023/03/19 12:32:08;;;;;;;42.33;19.10;;;10.40;99.90;;;;;;6249748;22;20015;-81
2023/03/19 12:34:44;;;;;;;50.38;21.75;;;10.40;99.90;;;;;;6249619;22;20138;-80
2023/03/19 12:37:20;;;;;;;46.03;21.98;;;10.40;99.90;;;;;;6276926;22;20113;-79
2023/03/19 12:40:18;;;;;;;43.58;19.52;;;10.30;99.90;;;;;;6247577;22;20055;-78
2023/03/19 12:42:46;;;;;;;38.90;18.98;;;10.30;99.90;;;;;;6224897;22;20035;-79
2023/03/19 12:45:35;;;;;;;36.10;17.60;;;10.20;99.90;;;;;;6275718;22;20024;-79